Time;durP1;ratioP1;P1;durP2;ratioP2;P2;SDS_P1;SDS_P2;PMS_P1;PMS_P2;Temp;Humidity;BMP_temperature;BMP_pressure;BME280_temperature;BME280_humidity;BME280_pressure;Samples;Min_cycle;Max_cycle;Signal;HPM_P1;HPM_P2
2023/10/29 00:01:16;;;;;;;5.35;1.70;;;;;;;11.30;100.00;99008.66;5092407;28;20078;-55
2023/10/29 00:03:44;;;;;;;2.90;1.60;;;;;;;11.30;100.00;98998.13;5091632;28;20399;-55
2023/10/29 00:06:16;;;;;;;4.47;1.77;;;;;;;11.29;100.00;98992.06;5091850;28;20060;-54
2023/10/29 00:08:44;;;;;;;4.07;1.50;;;;;;;11.31;100.00;98989.28;5090384;28;20479;-54
2023/10/29 00:11:12;;;;;;;4.10;1.70;;;;;;;11.30;100.00;98988.47;5090403;28;20046;-56
2023/10/29 00:13:40;;;;;;;4.45;1.42;;;;;;;11.32;100.00;98988.31;5091617;28;20052;-46
2023/10/29 00:16:08;;;;;;;4.28;1.52;;;;;;;11.40;100.00;98987.53;5090695;28;20058;-47
2023/10/29 00:18:36;;;;;;;5.65;1.70;;;;;;;11.38;100.00;98974.53;5094573;28;20906;-47
2023/10/29 00:21:05;;;;;;;3.15;1.50;;;;;;;11.33;100.00;98975.00;5092300;28;20059;-47
2023/10/29 00:23:35;;;;;;;4.57;2.10;;;;;;;11.40;100.00;98961.22;5093016;28;20060;-46
2023/10/29 00:26:04;;;;;;;4.28;1.50;;;;;;;11.40;100.00;98951.53;5095386;28;20058;-48
2023/10/29 00:28:32;;;;;;;4.97;1.42;;;;;;;11.43;100.00;98971.47;5095064;28;20067;-48
2023/10/29 00:31:00;;;;;;;3.75;1.30;;;;;;;11.45;100.00;98975.59;5095045;28;20483;-46
2023/10/29 00:33:28;;;;;;;2.63;1.20;;;;;;;11.45;100.00;98962.44;5094979;28;20131;-47
2023/10/29 00:35:56;;;;;;;5.18;1.40;;;;;;;11.44;100.00;98959.97;5094916;28;20042;-47
2023/10/29 00:38:24;;;;;;;2.97;1.17;;;;;;;11.50;100.00;98954.88;5094797;28;20048;-48
2023/10/29 00:40:54;;;;;;;4.05;1.05;;;;;;;11.49;100.00;98963.78;5094461;28;20060;-46
2023/10/29 00:43:22;;;;;;;2.45;1.27;;;;;;;11.58;100.00;98958.59;5094662;28;20055;-47
2023/10/29 00:45:54;;;;;;;2.65;1.20;;;;;;;11.65;100.00;98964.91;5093215;28;20090;-49
2023/10/29 00:48:23;;;;;;;3.78;1.40;;;;;;;11.66;100.00;98942.84;5094929;28;20044;-48
2023/10/29 00:50:51;;;;;;;5.03;1.20;;;;;;;11.65;100.00;98928.84;5093520;28;20511;-48
2023/10/29 00:53:20;;;;;;;2.42;1.17;;;;;;;11.67;100.00;98928.72;5094738;28;20055;-47
2023/10/29 00:55:49;;;;;;;3.28;1.10;;;;;;;11.62;100.00;98931.78;5094516;28;20082;-48
2023/10/29 00:58:20;;;;;;;2.78;1.17;;;;;;;11.64;100.00;98911.41;5094527;28;20078;-47
2023/10/29 01:00:48;;;;;;;2.60;1.10;;;;;;;11.64;100.00;98906.16;5094646;28;20055;-46
2023/10/29 01:03:18;;;;;;;3.60;1.40;;;;;;;11.63;100.00;98916.81;5094637;28;20048;-46
2023/10/29 01:05:50;;;;;;;2.50;0.93;;;;;;;11.66;100.00;98908.63;5094422;28;20458;-47
2023/10/29 01:08:18;;;;;;;3.80;1.13;;;;;;;11.67;100.00;98913.72;5094525;28;20114;-48
2023/10/29 01:10:47;;;;;;;3.72;1.20;;;;;;;11.65;100.00;98897.25;5092876;28;20055;-47
2023/10/29 01:13:16;;;;;;;2.58;1.42;;;;;;;11.69;100.00;98904.88;5094313;28;20566;-46
2023/10/29 01:15:47;;;;;;;3.13;1.05;;;;;;;11.66;100.00;98909.44;5094228;28;20570;-49
2023/10/29 01:18:15;;;;;;;3.78;1.40;;;;;;;11.67;100.00;98903.19;5094171;28;20123;-46
2023/10/29 01:20:43;;;;;;;3.75;1.02;;;;;;;11.75;100.00;98891.06;5094209;28;20051;-47
2023/10/29 01:23:12;;;;;;;6.50;1.65;;;;;;;11.76;100.00;98882.19;5094224;28;20044;-46
2023/10/29 01:25:41;;;;;;;3.42;1.10;;;;;;;11.71;100.00;98876.56;5093984;28;20047;-46
2023/10/29 01:28:09;;;;;;;6.07;1.20;;;;;;;11.74;100.00;98857.81;5092677;28;20078;-47
2023/10/29 01:30:37;;;;;;;3.83;1.20;;;;;;;11.74;100.00;98856.00;5093558;28;20047;-46
2023/10/29 01:33:07;;;;;;;2.83;1.20;;;;;;;11.75;100.00;98859.47;5093917;28;20079;-46
2023/10/29 01:35:35;;;;;;;3.80;1.17;;;;;;;11.73;100.00;98853.53;5093118;28;20126;-47
2023/10/29 01:38:03;;;;;;;6.07;1.83;;;;;;;11.75;100.00;98852.41;5088865;28;20076;-49
2023/10/29 01:40:31;;;;;;;2.17;1.10;;;;;;;11.76;100.00;98859.31;5090809;28;20056;-47
2023/10/29 01:43:03;;;;;;;3.30;1.33;;;;;;;11.79;100.00;98848.47;5092489;28;20127;-46
2023/10/29 01:45:31;;;;;;;2.92;1.10;;;;;;;11.79;100.00;98848.47;5092344;28;20138;-50
2023/10/29 01:48:00;;;;;;;3.30;1.17;;;;;;;11.82;100.00;98850.78;5093430;28;20407;-49
2023/10/29 01:50:29;;;;;;;4.47;1.02;;;;;;;11.87;100.00;98854.75;5093544;28;20051;-47
2023/10/29 01:52:58;;;;;;;4.65;1.20;;;;;;;11.82;100.00;98840.25;5093450;28;20040;-47
2023/10/29 01:55:26;;;;;;;3.58;1.00;;;;;;;11.84;100.00;98848.00;5092156;28;20048;-48
2023/10/29 01:57:54;;;;;;;4.13;1.08;;;;;;;11.83;100.00;98844.53;5093497;28;20036;-49
2023/10/29 02:00:23;;;;;;;5.07;1.10;;;;;;;11.78;100.00;98844.19;5093748;28;20130;-48
2023/10/29 02:02:52;;;;;;;4.32;1.08;;;;;;;11.78;100.00;98843.34;5093278;28;20044;-48
2023/10/29 02:05:20;;;;;;;2.90;1.20;;;;;;;11.75;100.00;98847.13;5093617;28;20051;-47
2023/10/29 02:07:50;;;;;;;3.80;1.05;;;;;;;11.75;100.00;98839.25;5093050;28;20052;-48
2023/10/29 02:10:18;;;;;;;5.53;1.48;;;;;;;11.77;100.00;98839.09;5093239;28;20051;-48
2023/10/29 02:12:46;;;;;;;3.50;1.17;;;;;;;11.77;100.00;98832.00;5092993;28;20550;-47
2023/10/29 02:15:14;;;;;;;4.45;1.30;;;;;;;11.73;100.00;98828.03;5093095;28;20047;-50
2023/10/29 02:17:42;;;;;;;3.40;1.38;;;;;;;11.82;100.00;98829.72;5092731;28;20525;-48
2023/10/29 02:20:12;;;;;;;4.70;1.40;;;;;;;11.83;100.00;98831.38;5092964;28;20496;-49
2023/10/29 02:22:41;;;;;;;3.63;1.40;;;;;;;11.79;100.00;98818.66;5092924;28;20502;-47
2023/10/29 02:25:09;;;;;;;5.25;1.40;;;;;;;11.80;100.00;98820.31;5092851;28;20035;-51
2023/10/29 02:27:40;;;;;;;4.38;1.42;;;;;;;11.81;100.00;98819.34;5092744;28;20109;-51
2023/10/29 02:30:10;;;;;;;4.55;1.35;;;;;;;11.79;100.00;98827.41;5092608;28;20087;-50
2023/10/29 02:32:38;;;;;;;4.28;1.10;;;;;;;11.81;100.00;98819.34;5092603;28;20048;-55
2023/10/29 02:35:07;;;;;;;3.53;1.30;;;;;;;11.81;100.00;98819.34;5092568;28;20063;-55
2023/10/29 02:37:36;;;;;;;3.13;1.00;;;;;;;11.90;100.00;98822.84;5092449;28;20059;-55
2023/10/29 02:40:08;;;;;;;3.72;1.42;;;;;;;11.83;100.00;98823.47;5088449;28;20570;-55
2023/10/29 02:42:37;;;;;;;6.05;1.50;;;;;;;11.83;100.00;98822.63;5090533;28;20123;-55
2023/10/29 02:45:05;;;;;;;1.42;1.10;;;;;;;11.81;100.00;98822.78;5091328;28;20557;-55
2023/10/29 02:47:34;;;;;;;4.00;1.35;;;;;;;11.78;100.00;98817.84;5092630;28;20131;-55
2023/10/29 02:50:05;;;;;;;4.53;1.20;;;;;;;11.83;100.00;98812.09;5092519;28;20044;-55
2023/10/29 02:52:34;;;;;;;3.78;1.20;;;;;;;11.87;100.00;98807.34;5092392;28;20040;-55
2023/10/29 02:55:02;;;;;;;2.67;0.95;;;;;;;11.90;100.00;98810.50;5092423;28;20365;-53
2023/10/29 02:57:31;;;;;;;4.57;1.20;;;;;;;11.90;100.00;98807.88;5092336;28;20040;-54
2023/10/29 03:00:00;;;;;;;7.25;1.38;;;;;;;11.99;100.00;98804.28;5092571;28;20707;-55
2023/10/29 03:02:28;;;;;;;3.00;1.17;;;;;;;12.07;100.00;98797.44;5092387;28;20102;-55
2023/10/29 03:04:59;;;;;;;3.03;0.88;;;;;;;12.18;100.00;98803.22;5092235;28;20049;-54
2023/10/29 03:07:27;;;;;;;3.58;0.95;;;;;;;12.28;100.00;98795.16;5092150;28;20044;-47
2023/10/29 03:09:55;;;;;;;2.10;0.90;;;;;;;12.28;100.00;98810.97;5092167;28;20048;-45
2023/10/29 03:12:23;;;;;;;3.05;1.00;;;;;;;12.37;100.00;98796.03;5092295;28;20044;-46
2023/10/29 03:14:53;;;;;;;1.50;0.90;;;;;;;12.38;100.00;98802.09;5092067;28;20101;-46
2023/10/29 03:17:21;;;;;;;3.80;0.98;;;;;;;12.31;100.00;98797.50;5092138;28;20128;-47
2023/10/29 03:19:51;;;;;;;4.55;1.20;;;;;;;12.37;100.00;98785.47;5092139;28;20047;-46
2023/10/29 03:22:19;;;;;;;2.80;0.90;;;;;;;12.29;100.00;98811.81;5092064;28;20044;-46
2023/10/29 03:24:47;;;;;;;3.15;0.90;;;;;;;12.21;100.00;98803.88;5092225;28;20566;-45
2023/10/29 03:27:16;;;;;;;2.20;0.90;;;;;;;12.20;100.00;98804.88;5092017;28;20044;-48
2023/10/29 03:29:44;;;;;;;4.63;1.00;;;;;;;12.31;100.00;98797.50;5091902;28;20040;-47
2023/10/29 03:32:16;;;;;;;2.28;0.80;;;;;;;12.37;100.00;98796.03;5091997;28;20052;-45
2023/10/29 03:34:44;;;;;;;2.78;0.85;;;;;;;12.34;100.00;98788.44;5091851;28;20074;-45
2023/10/29 03:37:12;;;;;;;3.08;0.90;;;;;;;12.37;100.00;98785.47;5090851;28;20430;-46
2023/10/29 03:39:40;;;;;;;3.00;0.80;;;;;;;12.34;100.00;98801.63;5091631;28;20054;-47
2023/10/29 03:42:08;;;;;;;3.97;1.02;;;;;;;12.32;100.00;98804.44;5091877;28;20098;-46
2023/10/29 03:44:36;;;;;;;1.75;0.90;;;;;;;12.38;100.00;98818.78;5091749;28;20088;-48
2023/10/29 03:47:05;;;;;;;4.43;1.17;;;;;;;12.27;100.00;98811.13;5091742;28;20144;-48
2023/10/29 03:49:35;;;;;;;4.10;0.80;;;;;;;12.26;100.00;98815.59;5091756;28;20063;-46
2023/10/29 03:52:03;;;;;;;3.20;1.05;;;;;;;12.29;100.00;98815.28;5093973;28;20452;-45
2023/10/29 03:54:34;;;;;;;1.15;0.70;;;;;;;12.44;100.00;98812.03;5092319;28;20075;-45
2023/10/29 03:57:02;;;;;;;3.45;1.00;;;;;;;12.38;100.00;98802.09;5091949;28;20091;-45
2023/10/29 03:59:31;;;;;;;4.13;1.17;;;;;;;12.38;100.00;98810.00;5094383;28;20055;-45
2023/10/29 04:01:59;;;;;;;3.65;0.80;;;;;;;12.39;100.00;98806.41;5095742;28;20119;-46
2023/10/29 04:04:26;;;;;;;6.75;0.80;;;;;;;12.31;100.00;98796.66;5095894;28;20101;-46
2023/10/29 04:06:55;;;;;;;5.07;1.08;;;;;;;12.25;100.00;98797.31;5095390;28;20047;-46
2023/10/29 04:09:24;;;;;;;2.35;0.77;;;;;;;12.17;100.00;98800.75;5095604;28;20052;-46
2023/10/29 04:11:52;;;;;;;0.77;0.60;;;;;;;12.15;100.00;98797.44;5095255;28;20102;-47
2023/10/29 04:14:23;;;;;;;2.40;0.73;;;;;;;12.25;100.00;98803.41;5095162;28;20063;-47
2023/10/29 04:16:51;;;;;;;1.42;0.70;;;;;;;12.33;100.00;98797.34;5094948;28;20058;-50
2023/10/29 04:19:20;;;;;;;0.73;0.63;;;;;;;12.37;100.00;98806.56;5095070;28;20044;-50
2023/10/29 04:21:48;;;;;;;1.38;0.70;;;;;;;12.32;100.00;98799.16;5095060;28;20052;-49
2023/10/29 04:24:17;;;;;;;1.85;0.90;;;;;;;12.28;100.00;98813.59;5095044;28;20043;-46
2023/10/29 04:26:45;;;;;;;1.77;0.77;;;;;;;12.20;100.00;98808.31;5095010;28;20040;-45
2023/10/29 04:29:14;;;;;;;2.35;0.90;;;;;;;12.16;100.00;98828.06;5094879;28;20044;-47
2023/10/29 04:31:43;;;;;;;1.95;0.60;;;;;;;12.13;100.00;98823.13;5094983;28;20109;-46
2023/10/29 04:34:11;;;;;;;3.03;0.90;;;;;;;12.07;100.00;98827.22;5095104;28;20575;-47
2023/10/29 04:36:41;;;;;;;1.70;0.68;;;;;;;12.06;100.00;98841.38;5094914;28;20054;-46
2023/10/29 04:39:09;;;;;;;1.95;0.98;;;;;;;12.02;100.00;98834.78;5094773;28;20406;-47
2023/10/29 04:41:39;;;;;;;1.85;0.80;;;;;;;12.02;100.00;98839.22;5094710;28;20080;-48
2023/10/29 04:44:07;;;;;;;3.63;0.80;;;;;;;12.05;100.00;98838.91;5095069;28;20052;-47
2023/10/29 04:46:35;;;;;;;2.33;1.00;;;;;;;12.12;100.00;98834.63;5095019;28;20056;-46
2023/10/29 04:49:03;;;;;;;1.33;0.73;;;;;;;12.09;100.00;98842.88;5094471;28;20058;-49
2023/10/29 04:51:32;;;;;;;2.22;0.80;;;;;;;12.05;100.00;98839.72;5094401;28;20040;-47
2023/10/29 04:54:01;;;;;;;5.00;0.90;;;;;;;12.01;100.00;98843.66;5094595;28;20040;-46
2023/10/29 04:56:30;;;;;;;3.13;1.10;;;;;;;12.10;100.00;98847.16;5094644;28;20044;-47
2023/10/29 04:59:02;;;;;;;2.03;0.85;;;;;;;12.14;100.00;98837.97;5093260;28;20089;-49
2023/10/29 05:01:30;;;;;;;2.65;0.93;;;;;;;12.18;100.00;98836.66;5094355;28;20040;-47
2023/10/29 05:03:58;;;;;;;2.20;0.75;;;;;;;12.16;100.00;98835.97;5094320;28;20077;-47
2023/10/29 05:06:27;;;;;;;3.88;1.13;;;;;;;12.17;100.00;98827.09;5094543;28;20105;-49
2023/10/29 05:08:56;;;;;;;3.78;1.02;;;;;;;12.12;100.00;98834.63;5094377;28;20487;-50
2023/10/29 05:11:25;;;;;;;3.33;1.10;;;;;;;12.07;100.00;98821.94;5094438;28;20048;-47
2023/10/29 05:13:53;;;;;;;3.33;1.05;;;;;;;12.04;100.00;98842.50;5094211;28;20075;-49
2023/10/29 05:16:23;;;;;;;5.07;1.33;;;;;;;11.98;100.00;98836.06;5094257;28;20044;-48
2023/10/29 05:18:54;;;;;;;4.22;1.10;;;;;;;11.99;100.00;98843.00;5094317;28;20044;-49
2023/10/29 05:21:24;;;;;;;5.03;1.08;;;;;;;11.94;100.00;98832.94;5093113;28;20055;-49
2023/10/29 05:23:52;;;;;;;5.47;1.10;;;;;;;11.87;100.00;98831.06;5094179;28;20379;-46
2023/10/29 05:26:20;;;;;;;5.82;1.13;;;;;;;11.82;100.00;98837.63;5094387;28;20475;-48
2023/10/29 05:28:50;;;;;;;3.42;0.95;;;;;;;11.79;100.00;98847.63;5093814;28;20044;-47
2023/10/29 05:31:18;;;;;;;2.58;0.90;;;;;;;11.77;100.00;98847.78;5093865;28;20116;-46
2023/10/29 05:33:50;;;;;;;2.88;1.10;;;;;;;11.75;100.00;98854.19;5094053;28;20082;-48
2023/10/29 05:36:18;;;;;;;3.75;1.10;;;;;;;11.73;100.00;98862.25;5093977;28;20052;-48
2023/10/29 05:38:46;;;;;;;5.50;1.77;;;;;;;11.76;100.00;98869.03;5093948;28;20036;-47
2023/10/29 05:41:14;;;;;;;3.60;0.90;;;;;;;11.79;100.00;98859.00;5093640;28;20059;-47
2023/10/29 05:43:44;;;;;;;5.70;1.00;;;;;;;11.82;100.00;98849.94;5093676;28;20517;-47
2023/10/29 05:46:13;;;;;;;3.28;1.00;;;;;;;11.80;100.00;98852.75;5093688;28;20067;-48
2023/10/29 05:48:41;;;;;;;4.18;1.10;;;;;;;11.79;100.00;98855.53;5093622;28;20384;-47
2023/10/29 05:51:12;;;;;;;4.80;1.15;;;;;;;11.79;100.00;98851.09;5093711;28;20509;-46
2023/10/29 05:53:41;;;;;;;4.90;1.38;;;;;;;11.78;100.00;98840.72;5093595;28;20043;-47
2023/10/29 05:56:09;;;;;;;7.22;1.20;;;;;;;11.75;100.00;98844.50;5093936;28;20077;-48
2023/10/29 05:58:38;;;;;;;6.32;1.20;;;;;;;11.69;100.00;98850.38;5093455;28;20043;-50
2023/10/29 06:01:07;;;;;;;5.22;0.90;;;;;;;11.61;100.00;98859.03;5093484;28;20059;-48
2023/10/29 06:03:35;;;;;;;3.95;1.05;;;;;;;11.61;100.00;98869.56;5093480;28;20483;-48
2023/10/29 06:06:07;;;;;;;6.45;1.40;;;;;;;11.56;100.00;98877.13;5093571;28;20059;-49
2023/10/29 06:08:36;;;;;;;5.57;0.98;;;;;;;11.57;100.00;98880.59;5093232;28;20368;-50
2023/10/29 06:11:05;;;;;;;4.72;1.00;;;;;;;11.55;100.00;98879.91;5093161;28;20048;-49
2023/10/29 06:13:33;;;;;;;3.05;0.95;;;;;;;11.56;100.00;98898.19;5091319;28;20524;-48
2023/10/29 06:16:08;;;;;;;2.75;0.60;;;;;;;11.52;100.00;98906.53;5089835;28;20051;-48
2023/10/29 06:18:36;;;;;;;5.50;0.77;;;;;;;11.48;100.00;98908.66;5092080;28;20123;-48
2023/10/29 06:21:08;;;;;;;1.77;0.57;;;;;;;11.43;100.00;98919.63;5089343;28;20051;-46
2023/10/29 06:23:38;;;;;;;5.05;1.00;;;;;;;11.44;100.00;98937.09;5090443;28;20052;-46
2023/10/29 06:26:08;;;;;;;2.95;0.70;;;;;;;11.43;100.00;98930.16;5093177;28;20094;-46
2023/10/29 06:28:36;;;;;;;4.55;0.70;;;;;;;11.40;100.00;98922.56;5092791;28;20067;-46
2023/10/29 06:31:05;;;;;;;3.90;0.63;;;;;;;11.42;100.00;98930.31;5092796;28;20067;-49
2023/10/29 06:33:33;;;;;;;1.92;0.57;;;;;;;11.41;100.00;98936.56;5091533;28;20040;-47
2023/10/29 06:36:01;;;;;;;3.55;0.90;;;;;;;11.38;100.00;98939.50;5092715;28;20127;-47
2023/10/29 06:38:29;;;;;;;2.58;0.80;;;;;;;11.40;100.00;98941.00;5092913;28;20048;-47
2023/10/29 06:40:59;;;;;;;2.53;0.70;;;;;;;11.37;100.00;98962.38;5090145;28;20062;-46
2023/10/29 06:43:29;;;;;;;2.88;0.70;;;;;;;11.37;100.00;98964.16;5087476;28;20052;-48
2023/10/29 06:45:58;;;;;;;4.20;1.05;;;;;;;11.33;100.00;98971.53;5091270;28;20047;-47
2023/10/29 06:48:26;;;;;;;3.70;0.80;;;;;;;11.24;100.00;98972.44;5090605;28;20044;-47
2023/10/29 06:50:55;;;;;;;4.22;0.80;;;;;;;11.20;100.00;98984.25;5091862;28;20143;-47
2023/10/29 06:53:23;;;;;;;4.03;1.20;;;;;;;11.21;100.00;98983.25;5090563;28;20122;-48
2023/10/29 06:55:51;;;;;;;5.07;1.02;;;;;;;11.22;100.00;98982.28;5091823;28;20139;-46
2023/10/29 06:58:20;;;;;;;6.20;1.40;;;;;;;11.18;100.00;98992.28;5091822;28;20145;-48
2023/10/29 07:00:49;;;;;;;4.78;0.98;;;;;;;11.15;100.00;98995.19;5091441;28;20068;-46
2023/10/29 07:03:17;;;;;;;5.05;0.80;;;;;;;11.10;100.00;98982.50;5088152;28;20044;-50
2023/10/29 07:05:45;;;;;;;7.38;1.27;;;;;;;11.09;100.00;98998.44;5089786;28;20047;-49
2023/10/29 07:08:14;;;;;;;6.82;1.20;;;;;;;11.13;100.00;98997.16;5091863;28;20443;-46
2023/10/29 07:10:42;;;;;;;5.25;1.38;;;;;;;11.13;100.00;99002.41;5091429;28;20094;-47
2023/10/29 07:13:10;;;;;;;7.22;1.17;;;;;;;11.12;100.00;99004.22;5088062;28;20047;-47
2023/10/29 07:15:40;;;;;;;4.90;1.10;;;;;;;11.18;100.00;99028.28;5089083;28;20122;-45
2023/10/29 07:18:09;;;;;;;6.78;1.10;;;;;;;11.24;100.00;99031.16;5091409;28;20148;-46
2023/10/29 07:20:37;;;;;;;4.57;0.88;;;;;;;11.41;100.00;99032.16;5091540;28;20457;-45
2023/10/29 07:23:05;;;;;;;8.05;1.40;;;;;;;11.50;100.00;99040.94;5091393;28;20051;-46
2023/10/29 07:25:34;;;;;;;5.15;1.23;;;;;;;11.56;100.00;99040.34;5090497;28;20044;-47
2023/10/29 07:28:02;;;;;;;8.55;1.33;;;;;;;11.53;100.00;99040.63;5090800;28;20055;-47
2023/10/29 07:30:31;;;;;;;5.47;0.95;;;;;;;11.51;100.00;99037.34;5091147;28;20056;-47
2023/10/29 07:33:01;;;;;;;6.32;1.15;;;;;;;11.58;100.00;99040.22;5091010;28;20044;-46
2023/10/29 07:35:29;;;;;;;5.65;1.15;;;;;;;11.66;100.00;99038.47;5090993;28;20045;-46
2023/10/29 07:37:57;;;;;;;8.93;1.45;;;;;;;11.79;100.00;99046.00;5091177;28;20132;-55
2023/10/29 07:40:25;;;;;;;7.95;1.20;;;;;;;11.95;100.00;99044.50;5051678;28;1158248;-56
2023/10/29 07:42:53;;;;;;;7.63;1.35;;;;;;;12.16;100.00;99052.06;5091812;28;20055;-55
2023/10/29 07:45:22;;;;;;;8.57;1.20;;;;;;;12.29;100.00;99063.03;5091888;28;20406;-54
2023/10/29 07:47:51;;;;;;;7.28;1.20;;;;;;;12.34;100.00;99065.22;5090163;28;20089;-55
2023/10/29 07:50:21;;;;;;;4.82;1.13;;;;;;;12.43;100.00;99066.91;5091752;28;20126;-56
2023/10/29 07:52:49;;;;;;;9.93;1.40;;;;;;;12.54;100.00;99063.16;5091851;28;20055;-54
2023/10/29 07:55:19;;;;;;;4.75;1.05;;;;;;;12.81;100.00;99078.00;5092174;28;20055;-54
2023/10/29 07:57:47;;;;;;;8.43;1.17;;;;;;;12.77;100.00;99091.66;5092264;28;20051;-47
2023/10/29 08:00:15;;;;;;;6.45;1.17;;;;;;;12.87;100.00;99100.31;5092140;28;20044;-55
2023/10/29 08:02:45;;;;;;;4.22;0.90;;;;;;;12.93;100.00;99107.56;5091829;28;20044;-54
2023/10/29 08:05:14;;;;;;;10.38;1.35;;;;;;;12.81;100.00;99108.81;5088169;28;20036;-54
2023/10/29 08:07:44;;;;;;;10.10;1.60;;;;;;;12.68;100.00;99107.44;5089301;28;20065;-54
2023/10/29 08:10:13;;;;;;;8.23;1.38;;;;;;;12.58;100.00;99104.06;5090256;28;20545;-46
2023/10/29 08:12:41;;;;;;;8.00;1.50;;;;;;;12.49;100.00;99102.38;5091375;28;20094;-54
2023/10/29 08:15:10;;;;;;;7.15;1.73;;;;;;;12.43;100.00;99100.34;5091807;28;20143;-54
2023/10/29 08:17:39;;;;;;;8.05;1.88;;;;;;;12.40;100.00;99103.31;5091405;28;20066;-54
2023/10/29 08:20:08;;;;;;;9.77;1.92;;;;;;;12.40;100.00;99100.66;5091782;28;20036;-54
2023/10/29 08:22:37;;;;;;;7.25;1.40;;;;;;;12.79;100.00;99110.81;5091456;28;20572;-54
2023/10/29 08:25:08;;;;;;;8.35;1.23;;;;;;;12.86;100.00;99122.38;5091464;28;20441;-54
2023/10/29 08:27:36;;;;;;;7.60;1.73;;;;;;;13.01;100.00;99128.72;5092031;28;20070;-50
2023/10/29 08:30:05;;;;;;;9.30;1.48;;;;;;;13.11;100.00;99127.78;5091315;28;20459;-49
2023/10/29 08:32:34;;;;;;;8.82;2.13;;;;;;;13.27;100.00;99129.66;5090098;28;20482;-49
2023/10/29 08:35:03;;;;;;;6.78;1.80;;;;;;;13.47;100.00;99132.88;5088011;28;20140;-49
2023/10/29 08:37:34;;;;;;;8.30;1.52;;;;;;;13.55;100.00;99135.53;5090008;28;20138;-48
2023/10/29 08:40:03;;;;;;;5.57;1.48;;;;;;;13.74;100.00;99136.25;5092172;28;20055;-54
2023/10/29 08:42:33;;;;;;;10.07;1.90;;;;;;;13.79;100.00;99139.25;5091891;28;20506;-54
2023/10/29 08:45:01;;;;;;;9.82;1.60;;;;;;;13.61;100.00;99134.09;5091988;28;20067;-46
2023/10/29 08:47:31;;;;;;;8.38;1.40;;;;;;;13.57;100.00;99141.50;5091551;28;20512;-47
2023/10/29 08:49:59;;;;;;;6.63;1.55;;;;;;;13.48;100.00;99151.22;5093009;28;20119;-55
2023/10/29 08:52:28;;;;;;;8.73;1.80;;;;;;;13.46;100.00;99141.81;5092628;28;20498;-47
2023/10/29 08:54:56;;;;;;;7.55;1.38;;;;;;;13.52;100.00;99149.94;5090586;28;20040;-48
2023/10/29 08:57:24;;;;;;;10.52;1.70;;;;;;;13.72;100.00;99151.47;5093079;28;20138;-44
2023/10/29 08:59:54;;;;;;;12.27;1.55;;;;;;;13.80;100.00;99140.91;5094629;28;20075;-46
2023/10/29 09:02:22;;;;;;;11.27;1.88;;;;;;;13.95;100.00;99144.56;5094548;28;20109;-53
2023/10/29 09:04:52;;;;;;;7.20;1.55;;;;;;;14.03;100.00;99155.16;5094700;28;20613;-53
2023/10/29 09:07:21;;;;;;;7.20;1.67;;;;;;;14.14;100.00;99172.50;5094478;28;20130;-52
2023/10/29 09:09:48;;;;;;;7.53;1.60;;;;;;;14.30;100.00;99182.28;5093275;28;20040;-52
2023/10/29 09:12:16;;;;;;;5.78;1.20;;;;;;;14.38;100.00;99186.72;5094444;28;20135;-49
2023/10/29 09:14:44;;;;;;;8.10;1.25;;;;;;;14.58;100.00;99191.69;5092858;28;20044;-53
2023/10/29 09:17:14;;;;;;;7.72;1.40;;;;;;;14.66;100.00;99195.19;5091652;28;20083;-53
2023/10/29 09:19:42;;;;;;;9.18;1.55;;;;;;;14.69;100.00;99194.84;5093814;28;20058;-45
2023/10/29 09:22:10;;;;;;;9.50;1.27;;;;;;;14.76;100.00;99196.84;5094106;28;20047;-50
2023/10/29 09:24:38;;;;;;;12.18;1.30;;;;;;;14.77;100.00;99209.91;5094190;28;20052;-54
2023/10/29 09:27:06;;;;;;;11.82;1.90;;;;;;;14.85;100.00;99209.88;5094389;28;20036;-54
2023/10/29 09:29:36;;;;;;;5.72;1.42;;;;;;;15.01;100.00;99218.78;5092829;28;20079;-54
2023/10/29 09:32:07;;;;;;;10.65;1.33;;;;;;;15.10;100.00;99220.44;5091380;28;20052;-53
2023/10/29 09:34:37;;;;;;;9.65;1.55;;;;;;;15.08;100.00;99219.78;5090727;28;20048;-45
2023/10/29 09:37:06;;;;;;;5.03;1.20;;;;;;;15.06;100.00;99213.00;5090294;28;20048;-53
2023/10/29 09:39:34;;;;;;;7.97;1.38;;;;;;;15.10;100.00;99214.31;5089676;28;20056;-45
2023/10/29 09:42:08;;;;;;;9.65;2.00;;;;;;;15.34;100.00;99219.53;5090857;28;20044;-45
2023/10/29 09:44:41;;;;;;;9.00;1.40;;;;;;;15.53;100.00;99226.28;5092685;28;20040;-53
2023/10/29 09:47:14;;;;;;;5.65;1.63;;;;;;;15.84;100.00;99214.06;5093676;28;20048;-45
2023/10/29 09:49:44;;;;;;;4.65;1.00;;;;;;;15.77;100.00;99221.03;5092633;28;20048;-46
2023/10/29 09:52:14;;;;;;;6.97;1.40;;;;;;;16.00;100.00;99219.28;5093646;28;20048;-53
2023/10/29 09:54:45;;;;;;;8.68;1.38;;;;;;;16.08;100.00;99221.06;5094049;28;20059;-53
2023/10/29 09:57:14;;;;;;;8.48;1.02;;;;;;;15.98;100.00;99221.28;5093693;28;20483;-45
2023/10/29 09:59:43;;;;;;;8.90;1.65;;;;;;;15.92;100.00;99216.66;5093292;28;20182;-45
2023/10/29 10:02:11;;;;;;;6.72;1.13;;;;;;;16.03;100.00;99215.44;5092266;28;20040;-47
2023/10/29 10:04:39;;;;;;;6.20;1.52;;;;;;;16.06;100.00;99241.63;5089976;28;20470;-47
2023/10/29 10:07:10;;;;;;;8.85;1.52;;;;;;;16.24;100.00;99225.44;5091146;28;20048;-47
2023/10/29 10:09:54;;;;;;;6.38;1.35;;;;;;;16.47;100.00;99221.94;5093328;28;20052;-46
2023/10/29 10:12:24;;;;;;;10.02;1.67;;;;;;;16.43;100.00;99215.34;5093121;28;20445;-48
2023/10/29 10:14:53;;;;;;;4.43;1.35;;;;;;;16.46;100.00;99212.38;5092247;28;20134;-44
2023/10/29 10:17:21;;;;;;;10.65;2.00;;;;;;;16.39;100.00;99225.50;5088336;28;20050;-54
2023/10/29 10:20:06;;;;;;;6.88;1.52;;;;;;;16.37;100.00;99232.81;5091789;28;20036;-47
2023/10/29 10:22:36;;;;;;;6.65;1.27;;;;;;;15.99;100.00;99225.59;5092882;28;20040;-54
2023/10/29 10:25:05;;;;;;;7.38;1.58;;;;;;;15.74;100.00;99206.31;5092950;28;20490;-54
2023/10/29 10:27:48;;;;;;;6.95;1.48;;;;;;;15.69;100.00;99177.69;5093032;28;20101;-54
2023/10/29 10:30:29;;;;;;;4.85;1.10;;;;;;;15.54;100.00;99198.78;5091549;28;20055;-54
2023/10/29 10:33:10;;;;;;;8.18;1.83;;;;;;;15.57;100.00;99208.22;5090470;28;20767;-46
2023/10/29 10:35:43;;;;;;;9.07;1.30;;;;;;;15.49;100.00;99200.31;5091546;28;20499;-47
2023/10/29 10:38:14;;;;;;;11.60;1.73;;;;;;;15.32;100.00;99204.81;5092842;28;20048;-48
2023/10/29 10:40:42;;;;;;;5.22;1.20;;;;;;;15.30;100.00;99197.03;5092423;28;20064;-49
2023/10/29 10:43:10;;;;;;;7.82;1.30;;;;;;;15.17;100.00;99212.63;5089909;28;20093;-48
2023/10/29 10:45:40;;;;;;;7.35;1.70;;;;;;;15.21;100.00;99217.44;5088285;28;20048;-49
2023/10/29 10:48:08;;;;;;;9.48;1.42;;;;;;;15.14;100.00;99215.63;5091949;28;20044;-45
2023/10/29 10:50:38;;;;;;;7.88;1.35;;;;;;;15.15;100.00;99209.34;5088475;28;20056;-46
2023/10/29 10:53:07;;;;;;;6.10;1.38;;;;;;;15.06;100.00;99216.47;5091024;28;20384;-43
2023/10/29 10:55:38;;;;;;;9.02;1.67;;;;;;;15.16;100.00;99213.63;5092303;28;20506;-46
2023/10/29 10:58:27;;;;;;;8.18;1.40;;;;;;;15.31;100.00;99233.13;5092345;28;20055;-46
2023/10/29 11:00:57;;;;;;;7.32;1.75;;;;;;;15.48;100.00;99225.13;5091880;28;20097;-46
2023/10/29 11:03:30;;;;;;;9.10;2.28;;;;;;;15.49;100.00;99237.41;5090922;28;20055;-45
2023/10/29 11:06:01;;;;;;;10.68;2.53;;;;;;;15.41;100.00;99240.88;5092281;28;20059;-45
2023/10/29 11:08:29;;;;;;;9.82;2.08;;;;;;;15.41;100.00;99243.53;5087866;28;20490;-46
2023/10/29 11:11:00;;;;;;;8.55;2.30;;;;;;;15.36;100.00;99253.81;5089512;28;20079;-44
2023/10/29 11:13:28;;;;;;;11.50;3.28;;;;;;;15.28;100.00;99248.53;5090830;28;20418;-45
2023/10/29 11:15:56;;;;;;;11.35;2.78;;;;;;;15.18;100.00;99246.06;5088103;28;20052;-43
2023/10/29 11:18:31;;;;;;;7.90;1.58;;;;;;;15.08;100.00;99246.25;5089395;28;20039;-45
2023/10/29 11:21:03;;;;;;;8.90;1.45;;;;;;;14.89;100.00;99231.56;5091825;28;20054;-46
2023/10/29 11:23:33;;;;;;;10.80;1.70;;;;;;;14.88;100.00;99224.59;5091736;28;20131;-44
2023/10/29 11:26:23;;;;;;;7.60;1.83;;;;;;;14.85;100.00;99219.66;5092174;28;20051;-45
2023/10/29 11:28:52;;;;;;;7.63;1.65;;;;;;;14.79;100.00;99226.44;5091760;28;20044;-45
2023/10/29 11:31:22;;;;;;;10.98;2.28;;;;;;;14.74;100.00;99223.47;5088745;28;20044;-55
2023/10/29 11:34:24;;;;;;;12.68;2.63;;;;;;;14.68;100.00;99230.25;5089591;28;20060;-54